createdAt,value
2018-02-17T00:00:13.229Z,101784.66
2018-02-17T00:02:45.732Z,101788.90
2018-02-17T00:05:18.261Z,101794.96
2018-02-17T00:07:50.774Z,101802.14
2018-02-17T00:10:23.328Z,101808.91
2018-02-17T00:12:55.827Z,101805.66
2018-02-17T00:15:28.362Z,101804.48
2018-02-17T00:18:00.860Z,101810.11
2018-02-17T00:20:33.381Z,101809.73
2018-02-17T00:23:06.887Z,101817.03
2018-02-17T00:25:39.414Z,101816.27
2018-02-17T00:28:11.924Z,101809.03
2018-02-17T00:30:44.448Z,101807.25
2018-02-17T00:33:16.951Z,101814.84
2018-02-17T00:35:50.371Z,101810.14
2018-02-17T00:38:22.881Z,101801.69
2018-02-17T00:40:55.404Z,101794.87
2018-02-17T00:43:27.907Z,101795.29
2018-02-17T00:46:00.440Z,101794.88
2018-02-17T00:48:32.949Z,101793.00
2018-02-17T00:51:05.487Z,101798.09
2018-02-17T00:53:38.013Z,101798.52
2018-02-17T00:56:10.547Z,101799.27
2018-02-17T00:58:44.024Z,101799.25
2018-02-17T01:01:16.551Z,101804.67
2018-02-17T01:03:49.042Z,101801.56
2018-02-17T01:06:21.560Z,101804.45
2018-02-17T01:08:54.066Z,101803.06
2018-02-17T01:11:26.586Z,101801.31
2018-02-17T01:13:59.085Z,101799.98
2018-02-17T01:16:31.605Z,101801.56
2018-02-17T01:19:04.113Z,101795.07
2018-02-17T01:21:36.635Z,101797.27
2018-02-17T01:24:09.135Z,101796.41
2018-02-17T01:26:41.667Z,101792.87
2018-02-17T01:29:14.168Z,101789.78
2018-02-17T01:31:46.703Z,101787.23
2018-02-17T01:34:19.206Z,101783.75
2018-02-17T01:36:51.729Z,101783.28
2018-02-17T01:39:24.235Z,101784.95
2018-02-17T01:41:56.779Z,101780.30
2018-02-17T01:44:29.273Z,101777.77
2018-02-17T01:47:01.810Z,101769.25
2018-02-17T01:49:34.348Z,101767.88
2018-02-17T01:52:06.864Z,101761.91
2018-02-17T01:54:39.378Z,101760.17
2018-02-17T01:57:11.974Z,101765.85
2018-02-17T01:59:44.484Z,101772.61
2018-02-17T02:02:17.032Z,101766.20
2018-02-17T02:04:49.516Z,101753.58
2018-02-17T02:07:22.029Z,101750.96
2018-02-17T02:09:54.544Z,101756.31
2018-02-17T02:12:27.068Z,101749.93
2018-02-17T02:14:59.571Z,101752.43
2018-02-17T02:17:32.089Z,101756.59
2018-02-17T02:20:04.586Z,101757.85
2018-02-17T02:22:37.137Z,101753.97
2018-02-17T02:25:09.656Z,101754.35
2018-02-17T02:27:42.201Z,101758.55
2018-02-17T02:30:14.757Z,101754.36
2018-02-17T02:32:47.282Z,101753.50
2018-02-17T02:35:19.801Z,101757.30
2018-02-17T02:37:52.327Z,101752.27
2018-02-17T02:40:24.827Z,101748.02
2018-02-17T02:42:57.347Z,101756.04
2018-02-17T02:45:29.844Z,101757.25
2018-02-17T02:48:02.364Z,101758.48
2018-02-17T02:50:34.918Z,101755.14
2018-02-17T02:53:07.450Z,101753.55
2018-02-17T02:55:39.954Z,101748.39
2018-02-17T02:58:12.482Z,101756.04
2018-02-17T03:00:44.994Z,101750.59
2018-02-17T03:03:17.534Z,101746.87
2018-02-17T03:05:50.034Z,101751.95
2018-02-17T03:08:22.564Z,101757.90
2018-02-17T03:10:55.102Z,101756.69
2018-02-17T03:13:27.621Z,101751.17
2018-02-17T03:16:00.159Z,101748.06
2018-02-17T03:18:32.658Z,101747.97
2018-02-17T03:21:05.184Z,101748.53
2018-02-17T03:23:37.709Z,101751.53
2018-02-17T03:26:10.234Z,101755.25
2018-02-17T03:28:42.755Z,101756.05
2018-02-17T03:31:15.294Z,101757.52
2018-02-17T03:33:47.794Z,101756.52
2018-02-17T03:36:20.318Z,101755.84
2018-02-17T03:38:52.815Z,101754.73
2018-02-17T03:41:25.339Z,101752.22
2018-02-17T03:43:57.850Z,101743.62
2018-02-17T03:46:30.384Z,101742.45
2018-02-17T03:49:02.877Z,101746.31
2018-02-17T03:51:35.412Z,101743.03
2018-02-17T03:54:07.918Z,101741.87
2018-02-17T03:56:40.443Z,101744.80
2018-02-17T03:59:12.943Z,101739.75
2018-02-17T04:01:45.472Z,101737.30
2018-02-17T04:04:17.978Z,101741.13
2018-02-17T04:06:50.504Z,101740.34
2018-02-17T04:09:22.998Z,101734.42
2018-02-17T04:11:55.526Z,101732.68
2018-02-17T04:14:29.046Z,101733.09
2018-02-17T04:17:01.584Z,101730.30
2018-02-17T04:19:34.092Z,101720.97
2018-02-17T04:22:06.613Z,101726.01
2018-02-17T04:24:39.117Z,101732.73
2018-02-17T04:27:11.642Z,101727.55
2018-02-17T04:29:44.199Z,101721.36
2018-02-17T04:32:16.727Z,101723.47
2018-02-17T04:34:49.234Z,101722.47
2018-02-17T04:37:21.780Z,101730.06
2018-02-17T04:39:56.683Z,101726.20
2018-02-17T04:45:46.276Z,101717.31
2018-02-17T04:48:24.387Z,101718.07
2018-02-17T04:51:02.442Z,101717.98
2018-02-17T04:53:40.886Z,101717.48
2018-02-17T04:56:18.920Z,101715.70
2018-02-17T05:02:05.910Z,101704.10
2018-02-17T05:04:38.440Z,101701.89
2018-02-17T05:10:24.264Z,101691.93
2018-02-17T05:12:56.784Z,101690.57
2018-02-17T05:15:30.666Z,101694.29
2018-02-17T05:21:22.756Z,101697.50
2018-02-17T05:27:07.654Z,101701.50
2018-02-17T05:29:40.682Z,101694.70
2018-02-17T05:32:14.945Z,101694.67
2018-02-17T05:34:52.993Z,101692.48
2018-02-17T05:37:25.496Z,101691.56
2018-02-17T05:39:58.437Z,101692.38
2018-02-17T05:42:33.555Z,101690.59
2018-02-17T05:45:08.597Z,101693.20
2018-02-17T05:47:57.749Z,101694.84
2018-02-17T05:50:31.197Z,101700.71
2018-02-17T05:53:03.715Z,101699.51
2018-02-17T05:55:36.244Z,101702.81
2018-02-17T05:58:08.751Z,101698.11
2018-02-17T06:00:41.263Z,101704.31
2018-02-17T06:03:13.828Z,101707.70
2018-02-17T06:05:46.355Z,101710.03
2018-02-17T06:08:18.881Z,101708.55
2018-02-17T06:10:51.444Z,101704.59
2018-02-17T06:13:23.967Z,101704.31
2018-02-17T06:15:56.482Z,101705.44
2018-02-17T06:18:29.014Z,101704.27
2018-02-17T06:21:01.519Z,101698.64
2018-02-17T06:23:34.040Z,101702.89
2018-02-17T06:26:06.558Z,101711.46
2018-02-17T06:28:39.149Z,101709.73
2018-02-17T06:31:12.449Z,101706.42
2018-02-17T06:33:44.976Z,101712.46
2018-02-17T06:36:17.481Z,101706.30
2018-02-17T06:38:50.000Z,101705.97
2018-02-17T06:41:22.510Z,101712.91
2018-02-17T06:43:55.031Z,101717.72
2018-02-17T06:46:27.531Z,101709.16
2018-02-17T06:49:00.064Z,101705.58
2018-02-17T06:51:32.563Z,101701.47
2018-02-17T06:54:05.087Z,101696.48
2018-02-17T06:56:37.589Z,101694.06
2018-02-17T06:59:10.112Z,101689.75
2018-02-17T07:01:42.630Z,101684.37
2018-02-17T07:04:15.173Z,101683.60
2018-02-17T07:06:47.702Z,101681.75
2018-02-17T07:09:20.233Z,101678.84
2018-02-17T07:11:52.744Z,101669.14
2018-02-17T07:14:26.343Z,101672.27
2018-02-17T07:16:58.870Z,101666.53
2018-02-17T07:19:31.401Z,101667.43
2018-02-17T07:22:03.916Z,101660.72
2018-02-17T07:24:36.450Z,101660.45
2018-02-17T07:27:09.004Z,101657.94
2018-02-17T07:29:41.521Z,101658.02
2018-02-17T07:32:14.028Z,101651.77
2018-02-17T07:34:46.558Z,101649.91
2018-02-17T07:37:19.065Z,101651.94
2018-02-17T07:39:51.581Z,101653.75
2018-02-17T07:42:24.080Z,101656.86
2018-02-17T07:44:56.613Z,101667.55
2018-02-17T07:47:29.411Z,101661.41
2018-02-17T07:50:01.960Z,101657.39
2018-02-17T07:52:34.462Z,101661.35
2018-02-17T07:55:06.987Z,101656.22
2018-02-17T07:57:39.479Z,101663.59
2018-02-17T08:00:12.025Z,101662.56
2018-02-17T08:02:44.555Z,101662.70
2018-02-17T08:05:17.096Z,101658.26
2018-02-17T08:07:49.594Z,101653.34
2018-02-17T08:10:22.616Z,101651.80
2018-02-17T08:12:55.115Z,101652.30
2018-02-17T08:15:27.697Z,101654.19
2018-02-17T08:18:00.202Z,101654.45
2018-02-17T08:20:32.723Z,101654.95
2018-02-17T08:23:05.227Z,101650.66
2018-02-17T08:25:37.760Z,101652.28
2018-02-17T08:28:15.200Z,101659.30
2018-02-17T08:30:47.735Z,101667.19
2018-02-17T08:33:20.244Z,101661.22
2018-02-17T08:35:52.760Z,101659.72
2018-02-17T08:38:25.271Z,101658.98
2018-02-17T08:40:57.791Z,101653.37
2018-02-17T08:43:30.325Z,101654.09
2018-02-17T08:46:02.849Z,101641.50
2018-02-17T08:48:35.354Z,101645.16
2018-02-17T08:51:08.634Z,101648.14
2018-02-17T08:53:41.160Z,101650.58
2018-02-17T08:56:13.707Z,101653.02
2018-02-17T08:58:46.214Z,101652.35
2018-02-17T09:01:18.735Z,101648.01
2018-02-17T09:03:51.264Z,101639.12
2018-02-17T09:06:23.792Z,101644.11
2018-02-17T09:08:56.356Z,101637.06
2018-02-17T09:11:28.974Z,101645.72
2018-02-17T09:14:01.490Z,101644.69
2018-02-17T09:16:34.822Z,101640.17
2018-02-17T09:19:08.277Z,101646.15
2018-02-17T09:21:40.803Z,101653.86
2018-02-17T09:24:13.320Z,101654.41
2018-02-17T09:26:45.870Z,101650.50
2018-02-17T09:29:18.370Z,101650.49
2018-02-17T09:31:51.064Z,101654.04
2018-02-17T09:34:23.593Z,101657.02
2018-02-17T09:36:56.094Z,101652.75
2018-02-17T09:39:28.614Z,101647.52
2018-02-17T09:42:01.122Z,101650.67
2018-02-17T09:44:33.639Z,101648.66
2018-02-17T09:47:06.278Z,101644.48
2018-02-17T09:49:38.816Z,101649.14
2018-02-17T09:52:11.423Z,101649.23
2018-02-17T09:54:43.952Z,101649.70
2018-02-17T09:57:16.464Z,101650.12
2018-02-17T09:59:48.994Z,101647.21
2018-02-17T10:02:21.521Z,101643.91
2018-02-17T10:07:32.954Z,101646.05
2018-02-17T10:10:05.479Z,101644.94
2018-02-17T10:12:37.983Z,101654.30
2018-02-17T10:15:10.508Z,101646.23
2018-02-17T10:17:43.012Z,101651.34
2018-02-17T10:20:15.574Z,101647.56
2018-02-17T10:22:48.098Z,101645.91
2018-02-17T10:25:20.623Z,101645.53
2018-02-17T10:27:53.122Z,101640.36
2018-02-17T10:30:25.826Z,101645.05
2018-02-17T10:32:58.336Z,101644.70
2018-02-17T10:35:30.956Z,101645.52
2018-02-17T10:38:03.377Z,101647.33
2018-02-17T10:40:35.939Z,101644.38
2018-02-17T10:43:08.428Z,101634.66
2018-02-17T10:45:41.020Z,101635.11
2018-02-17T10:48:13.839Z,101634.32
2018-02-17T10:50:46.666Z,101633.05
2018-02-17T10:53:20.603Z,101633.47
2018-02-17T10:55:53.269Z,101634.17
2018-02-17T10:58:25.852Z,101633.16
2018-02-17T11:00:59.133Z,101628.06
2018-02-17T11:03:31.984Z,101622.12
2018-02-17T11:06:04.511Z,101619.96
2018-02-17T11:08:36.999Z,101621.84
2018-02-17T11:11:09.549Z,101622.17
2018-02-17T11:13:42.048Z,101617.25
2018-02-17T11:16:14.675Z,101615.55
2018-02-17T11:18:48.258Z,101619.71
2018-02-17T11:21:20.785Z,101618.12
2018-02-17T11:23:53.518Z,101621.09
2018-02-17T11:26:26.327Z,101623.77
2018-02-17T11:29:00.978Z,101622.54
2018-02-17T11:31:33.657Z,101624.25
2018-02-17T11:34:06.332Z,101622.16
2018-02-17T11:36:38.971Z,101620.41
2018-02-17T11:39:11.926Z,101621.69
2018-02-17T11:41:44.709Z,101614.02
2018-02-17T11:44:17.324Z,101619.59
2018-02-17T11:46:50.209Z,101619.18
2018-02-17T11:49:22.924Z,101625.55
2018-02-17T11:51:55.682Z,101618.32
2018-02-17T11:54:28.195Z,101617.89
2018-02-17T11:57:00.726Z,101619.17
2018-02-17T11:59:33.593Z,101610.27
2018-02-17T12:02:06.278Z,101616.20
2018-02-17T12:04:38.874Z,101608.55
2018-02-17T12:07:11.486Z,101602.88
2018-02-17T12:09:44.001Z,101597.47
2018-02-17T12:12:16.598Z,101596.81
2018-02-17T12:14:51.235Z,101596.39
2018-02-17T12:17:24.115Z,101584.34
2018-02-17T12:19:56.626Z,101596.06
2018-02-17T12:22:29.139Z,101588.64
2018-02-17T12:25:02.691Z,101593.93
2018-02-17T12:27:35.658Z,101580.84
2018-02-17T12:30:08.198Z,101592.36
2018-02-17T12:32:40.994Z,101588.09
2018-02-17T12:35:13.646Z,101591.06
2018-02-17T12:37:46.629Z,101582.89
2018-02-17T12:40:19.396Z,101582.41
2018-02-17T12:42:52.426Z,101582.08
2018-02-17T12:45:25.179Z,101578.77
2018-02-17T12:47:57.707Z,101575.30
2018-02-17T12:50:30.632Z,101578.36
2018-02-17T12:53:03.205Z,101577.09
2018-02-17T12:55:35.796Z,101576.26
2018-02-17T12:58:08.668Z,101581.79
2018-02-17T13:00:41.135Z,101582.59
2018-02-17T13:03:13.661Z,101578.30
2018-02-17T13:05:46.291Z,101587.67
2018-02-17T13:08:18.811Z,101594.86
2018-02-17T13:10:51.323Z,101594.48
2018-02-17T13:13:23.832Z,101587.69
2018-02-17T13:15:56.333Z,101587.27
2018-02-17T13:18:31.713Z,101590.67
2018-02-17T13:21:04.247Z,101580.88
2018-02-17T13:23:36.841Z,101575.36
2018-02-17T13:26:09.366Z,101582.17
2018-02-17T13:28:41.883Z,101576.26
2018-02-17T13:31:14.441Z,101576.23
2018-02-17T13:33:46.962Z,101571.16
2018-02-17T13:36:19.497Z,101566.91
2018-02-17T13:38:52.031Z,101562.64
2018-02-17T13:41:24.539Z,101572.44
2018-02-17T13:43:57.150Z,101572.29
2018-02-17T13:46:29.658Z,101574.56
2018-02-17T13:49:02.192Z,101572.02
2018-02-17T13:51:34.685Z,101573.27
2018-02-17T13:54:07.196Z,101577.53
2018-02-17T13:56:39.696Z,101584.76
2018-02-17T13:59:12.204Z,101581.70
2018-02-17T14:01:44.712Z,101579.16
2018-02-17T14:04:17.254Z,101591.98
2018-02-17T14:06:49.751Z,101597.50
2018-02-17T14:09:22.259Z,101593.25
2018-02-17T14:11:54.882Z,101595.40
2018-02-17T14:14:27.397Z,101595.80
2018-02-17T14:16:59.959Z,101596.64
2018-02-17T14:19:32.471Z,101600.89
2018-02-17T14:22:04.972Z,101599.21
2018-02-17T14:24:37.492Z,101597.09
2018-02-17T14:27:10.114Z,101601.75
2018-02-17T14:29:43.455Z,101598.36
2018-02-17T14:32:15.956Z,101599.62
2018-02-17T14:34:48.467Z,101601.33
2018-02-17T14:37:20.970Z,101592.82
2018-02-17T14:39:53.494Z,101608.13
2018-02-17T14:42:25.994Z,101602.59
2018-02-17T14:44:58.510Z,101599.55
2018-02-17T14:47:31.015Z,101602.58
2018-02-17T14:50:03.519Z,101606.42
2018-02-17T14:52:36.021Z,101603.03
2018-02-17T14:55:08.539Z,101614.07
2018-02-17T14:57:41.052Z,101614.11
2018-02-17T15:00:13.569Z,101616.66
2018-02-17T15:02:46.061Z,101612.40
2018-02-17T15:05:18.592Z,101614.08
2018-02-17T15:07:51.171Z,101609.00
2018-02-17T15:10:23.654Z,101611.97
2018-02-17T15:12:56.147Z,101613.67
2018-02-17T15:15:28.648Z,101616.64
2018-02-17T15:18:01.140Z,101617.48
2018-02-17T15:20:33.675Z,101614.50
2018-02-17T15:23:06.203Z,101617.91
2018-02-17T15:25:38.723Z,101614.50
2018-02-17T15:28:11.222Z,101622.19
2018-02-17T15:30:43.749Z,101615.80
2018-02-17T15:33:16.256Z,101621.75
2018-02-17T15:35:48.781Z,101626.41
2018-02-17T15:38:21.299Z,101627.27
2018-02-17T15:40:53.805Z,101625.55
2018-02-17T15:43:26.300Z,101629.39
2018-02-17T15:45:58.833Z,101631.94
2018-02-17T15:48:31.341Z,101627.27
2018-02-17T15:51:03.875Z,101625.98
2018-02-17T15:53:36.384Z,101628.52
2018-02-17T15:56:08.919Z,101626.84
2018-02-17T15:58:41.411Z,101627.27
2018-02-17T16:01:13.936Z,101627.24
2018-02-17T16:03:46.427Z,101630.20
2018-02-17T16:06:18.941Z,101628.92
2018-02-17T16:08:51.446Z,101630.61
2018-02-17T16:11:23.975Z,101638.67
2018-02-17T16:13:56.878Z,101645.91
2018-02-17T16:16:29.385Z,101645.88
2018-02-17T16:19:01.928Z,101643.71
2018-02-17T16:21:34.445Z,101647.08
2018-02-17T16:24:06.956Z,101649.59
2018-02-17T16:26:39.481Z,101645.75
2018-02-17T16:29:11.984Z,101649.56
2018-02-17T16:31:44.502Z,101654.20
2018-02-17T16:34:16.991Z,101652.48
2018-02-17T16:36:49.504Z,101657.91
2018-02-17T16:39:22.001Z,101666.34
2018-02-17T16:41:54.518Z,101664.52
2018-02-17T16:44:27.031Z,101659.86
2018-02-17T16:46:59.534Z,101657.36
2018-02-17T16:49:32.023Z,101662.00
2018-02-17T16:52:04.550Z,101659.01
2018-02-17T16:54:37.056Z,101662.35
2018-02-17T16:57:09.590Z,101667.81
2018-02-17T16:59:42.086Z,101671.95
2018-02-17T17:02:14.657Z,101670.59
2018-02-17T17:04:47.141Z,101672.70
2018-02-17T17:07:19.653Z,101673.95
2018-02-17T17:09:52.267Z,101672.67
2018-02-17T17:12:24.796Z,101673.49
2018-02-17T17:14:57.313Z,101677.80
2018-02-17T17:17:29.840Z,101680.34
2018-02-17T17:20:02.343Z,101685.88
2018-02-17T17:22:34.852Z,101683.70
2018-02-17T17:25:07.356Z,101687.09
2018-02-17T17:30:18.592Z,101686.23
2018-02-17T17:32:51.095Z,101689.14
2018-02-17T17:35:23.595Z,101687.84
2018-02-17T17:37:56.130Z,101696.64
2018-02-17T17:40:28.621Z,101697.52
2018-02-17T17:43:01.153Z,101706.00
2018-02-17T17:45:33.692Z,101701.30
2018-02-17T17:48:06.209Z,101700.41
2018-02-17T17:50:38.700Z,101712.24
2018-02-17T17:53:11.200Z,101711.36
2018-02-17T17:55:43.844Z,101710.02
2018-02-17T17:58:16.405Z,101714.94
2018-02-17T18:00:48.904Z,101719.25
2018-02-17T18:03:21.423Z,101721.87
2018-02-17T18:05:53.931Z,101727.80
2018-02-17T18:08:26.472Z,101726.11
2018-02-17T18:10:58.957Z,101725.23
2018-02-17T18:13:31.472Z,101726.88
2018-02-17T18:16:04.033Z,101725.53
2018-02-17T18:18:36.579Z,101733.02
2018-02-17T18:21:09.071Z,101737.59
2018-02-17T18:23:41.597Z,101738.83
2018-02-17T18:26:14.136Z,101738.82
2018-02-17T18:28:46.664Z,101740.05
2018-02-17T18:31:19.185Z,101731.58
2018-02-17T18:33:51.707Z,101737.55
2018-02-17T18:36:24.235Z,101738.30
2018-02-17T18:38:56.748Z,101737.42
2018-02-17T18:41:29.232Z,101734.45
2018-02-17T18:44:01.765Z,101737.38
2018-02-17T18:46:34.281Z,101743.16
2018-02-17T18:49:06.804Z,101744.52
2018-02-17T18:51:39.290Z,101745.79
2018-02-17T18:54:11.813Z,101737.30
2018-02-17T18:56:44.318Z,101744.44
2018-02-17T18:59:16.848Z,101741.48
2018-02-17T19:01:49.351Z,101744.12
2018-02-17T19:04:21.867Z,101750.52
2018-02-17T19:06:54.362Z,101748.09
2018-02-17T19:09:26.892Z,101742.73
2018-02-17T19:11:59.433Z,101737.72
2018-02-17T19:14:31.964Z,101740.69
2018-02-17T19:17:04.462Z,101745.29
2018-02-17T19:19:36.991Z,101749.30
2018-02-17T19:22:09.550Z,101747.70
2018-02-17T19:24:42.063Z,101746.59
2018-02-17T19:27:14.566Z,101750.94
2018-02-17T19:29:47.110Z,101749.26
2018-02-17T19:32:19.614Z,101740.36
2018-02-17T19:34:52.143Z,101748.03
2018-02-17T19:37:24.649Z,101748.78
2018-02-17T19:39:57.166Z,101756.77
2018-02-17T19:42:29.674Z,101754.23
2018-02-17T19:45:02.187Z,101756.28
2018-02-17T19:47:34.721Z,101761.27
2018-02-17T19:50:07.236Z,101768.53
2018-02-17T19:52:39.759Z,101760.91
2018-02-17T19:55:12.256Z,101770.66
2018-02-17T19:57:45.382Z,101770.39
2018-02-17T20:00:17.894Z,101764.81
2018-02-17T20:02:50.437Z,101757.97
2018-02-17T20:05:22.929Z,101761.54
2018-02-17T20:07:55.446Z,101763.05
2018-02-17T20:10:27.953Z,101764.30
2018-02-17T20:13:00.471Z,101759.53
2018-02-17T20:15:32.963Z,101760.02
2018-02-17T20:18:05.497Z,101763.08
2018-02-17T20:20:38.014Z,101765.02
2018-02-17T20:23:10.541Z,101768.40
2018-02-17T20:25:43.050Z,101771.14
2018-02-17T20:28:15.571Z,101779.95
2018-02-17T20:30:48.067Z,101777.70
2018-02-17T20:33:20.589Z,101776.75
2018-02-17T20:35:53.110Z,101784.19
2018-02-17T20:38:25.630Z,101779.94
2018-02-17T20:40:58.138Z,101781.28
2018-02-17T20:43:30.699Z,101782.23
2018-02-17T20:46:03.186Z,101784.84
2018-02-17T20:48:35.720Z,101791.00
2018-02-17T20:51:08.221Z,101790.33
2018-02-17T20:53:40.749Z,101789.55
2018-02-17T20:56:13.267Z,101790.52
2018-02-17T20:58:45.789Z,101791.41
2018-02-17T21:01:18.317Z,101799.34
2018-02-17T21:03:50.824Z,101801.30
2018-02-17T21:06:23.349Z,101800.09
2018-02-17T21:08:55.876Z,101803.13
2018-02-17T21:11:28.374Z,101807.80
2018-02-17T21:14:00.893Z,101813.55
2018-02-17T21:16:33.453Z,101818.76
2018-02-17T21:19:05.951Z,101812.34
2018-02-17T21:21:38.460Z,101817.91
2018-02-17T21:24:11.003Z,101822.14
2018-02-17T21:26:43.518Z,101820.45
2018-02-17T21:29:16.030Z,101826.52
2018-02-17T21:31:48.527Z,101826.66
2018-02-17T21:34:21.059Z,101830.17
2018-02-17T21:36:53.563Z,101837.83
2018-02-17T21:39:26.088Z,101836.36
2018-02-17T21:41:58.589Z,101834.39
2018-02-17T21:44:31.125Z,101835.95
2018-02-17T21:47:03.630Z,101845.38
2018-02-17T21:49:36.198Z,101849.88
2018-02-17T21:52:08.705Z,101853.40
2018-02-17T21:54:42.041Z,101855.23
2018-02-17T21:57:14.584Z,101852.41
2018-02-17T21:59:47.110Z,101854.91
2018-02-17T22:02:19.713Z,101862.47
2018-02-17T22:04:52.247Z,101862.91
2018-02-17T22:07:24.741Z,101867.16
2018-02-17T22:09:57.268Z,101869.14
2018-02-17T22:12:29.817Z,101876.34
2018-02-17T22:15:02.461Z,101862.56
2018-02-17T22:17:34.959Z,101871.15
2018-02-17T22:20:07.491Z,101865.16
2018-02-17T22:22:39.998Z,101868.67
2018-02-17T22:25:12.512Z,101868.53
2018-02-17T22:27:45.082Z,101864.53
2018-02-17T22:30:17.624Z,101870.53
2018-02-17T22:32:50.140Z,101869.11
2018-02-17T22:35:22.705Z,101869.59
2018-02-17T22:37:55.198Z,101873.41
2018-02-17T22:40:27.713Z,101877.22
2018-02-17T22:43:00.210Z,101880.24
2018-02-17T22:45:32.759Z,101878.05
2018-02-17T22:48:05.284Z,101875.55
2018-02-17T22:50:37.829Z,101876.58
2018-02-17T22:53:10.340Z,101879.94
2018-02-17T22:55:42.883Z,101882.01
2018-02-17T22:58:15.391Z,101884.05
2018-02-17T23:00:47.932Z,101885.75
2018-02-17T23:03:20.668Z,101890.02
2018-02-17T23:05:53.383Z,101894.20
2018-02-17T23:08:26.233Z,101891.98
2018-02-17T23:10:58.890Z,101892.91
2018-02-17T23:13:31.415Z,101905.05
2018-02-17T23:16:03.933Z,101902.91
2018-02-17T23:18:36.451Z,101903.46
2018-02-17T23:21:08.993Z,101904.73
2018-02-17T23:23:41.545Z,101902.02
2018-02-17T23:26:14.073Z,101907.55
2018-02-17T23:28:47.048Z,101906.36
2018-02-17T23:31:19.765Z,101913.45
2018-02-17T23:33:52.282Z,101912.27
2018-02-17T23:36:25.028Z,101912.23
2018-02-17T23:38:57.681Z,101909.05
2018-02-17T23:41:30.618Z,101910.59
2018-02-17T23:44:03.243Z,101911.59
2018-02-17T23:46:35.701Z,101910.33
2018-02-17T23:49:08.231Z,101913.22
2018-02-17T23:51:40.728Z,101915.80
2018-02-17T23:54:13.242Z,101918.15
2018-02-17T23:56:45.733Z,101919.52
2018-02-17T23:59:19.269Z,101919.62
